sensor_id;sensor_type;location;lat;lon;timestamp;temperature;humidity
17421;DHT22;8828;48.800;9.540;2023-03-01T00:01:32;2.20;91.60
17421;DHT22;8828;48.800;9.540;2023-03-01T00:04:00;2.20;91.70
17421;DHT22;8828;48.800;9.540;2023-03-01T00:06:28;2.20;91.70
17421;DHT22;8828;48.800;9.540;2023-03-01T00:08:57;2.20;91.80
17421;DHT22;8828;48.800;9.540;2023-03-01T00:11:26;2.20;91.80
17421;DHT22;8828;48.800;9.540;2023-03-01T00:13:56;2.20;91.80
17421;DHT22;8828;48.800;9.540;2023-03-01T00:16:27;2.20;91.80
17421;DHT22;8828;48.800;9.540;2023-03-01T00:18:57;2.10;91.90
17421;DHT22;8828;48.800;9.540;2023-03-01T00:21:25;2.10;92.00
17421;DHT22;8828;48.800;9.540;2023-03-01T00:23:54;2.10;92.00
17421;DHT22;8828;48.800;9.540;2023-03-01T00:26:23;2.10;92.10
17421;DHT22;8828;48.800;9.540;2023-03-01T00:28:51;2.00;92.20
17421;DHT22;8828;48.800;9.540;2023-03-01T00:31:22;2.00;92.20
17421;DHT22;8828;48.800;9.540;2023-03-01T00:33:54;2.00;92.30
17421;DHT22;8828;48.800;9.540;2023-03-01T00:36:24;2.00;92.30
17421;DHT22;8828;48.800;9.540;2023-03-01T00:38:52;2.00;92.40
17421;DHT22;8828;48.800;9.540;2023-03-01T00:41:21;2.00;92.50
17421;DHT22;8828;48.800;9.540;2023-03-01T00:43:50;2.00;92.50
17421;DHT22;8828;48.800;9.540;2023-03-01T00:46:20;2.00;92.60
17421;DHT22;8828;48.800;9.540;2023-03-01T00:48:48;2.00;92.60
17421;DHT22;8828;48.800;9.540;2023-03-01T00:51:20;1.90;92.60
17421;DHT22;8828;48.800;9.540;2023-03-01T00:53:52;1.90;92.60
17421;DHT22;8828;48.800;9.540;2023-03-01T00:56:21;1.90;92.70
17421;DHT22;8828;48.800;9.540;2023-03-01T00:58:49;1.80;92.80
17421;DHT22;8828;48.800;9.540;2023-03-01T01:01:19;1.80;92.90
17421;DHT22;8828;48.800;9.540;2023-03-01T01:03:49;1.80;93.00
17421;DHT22;8828;48.800;9.540;2023-03-01T01:06:21;1.80;93.00
17421;DHT22;8828;48.800;9.540;2023-03-01T01:08:50;1.70;93.10
17421;DHT22;8828;48.800;9.540;2023-03-01T01:11:19;1.70;93.20
17421;DHT22;8828;48.800;9.540;2023-03-01T01:13:48;1.70;93.30
17421;DHT22;8828;48.800;9.540;2023-03-01T01:16:18;1.70;93.20
17421;DHT22;8828;48.800;9.540;2023-03-01T01:18:46;1.70;93.40
17421;DHT22;8828;48.800;9.540;2023-03-01T01:21:16;1.60;93.40
17421;DHT22;8828;48.800;9.540;2023-03-01T01:23:46;1.70;93.60
17421;DHT22;8828;48.800;9.540;2023-03-01T01:26:17;1.70;93.60
17421;DHT22;8828;48.800;9.540;2023-03-01T01:28:45;1.70;93.70
17421;DHT22;8828;48.800;9.540;2023-03-01T01:31:13;1.80;93.80
17421;DHT22;8828;48.800;9.540;2023-03-01T01:33:42;1.80;93.80
17421;DHT22;8828;48.800;9.540;2023-03-01T01:36:10;1.80;93.80
17421;DHT22;8828;48.800;9.540;2023-03-01T01:38:39;1.90;94.00
17421;DHT22;8828;48.800;9.540;2023-03-01T01:41:11;1.90;94.00
17421;DHT22;8828;48.800;9.540;2023-03-01T01:43:41;1.90;94.10
17421;DHT22;8828;48.800;9.540;2023-03-01T01:46:17;2.00;94.10
17421;DHT22;8828;48.800;9.540;2023-03-01T01:48:52;2.10;94.10
17421;DHT22;8828;48.800;9.540;2023-03-01T01:51:28;2.10;94.30
17421;DHT22;8828;48.800;9.540;2023-03-01T01:54:08;2.10;94.30
17421;DHT22;8828;48.800;9.540;2023-03-01T01:56:40;2.10;94.40
17421;DHT22;8828;48.800;9.540;2023-03-01T01:59:11;2.10;94.50
17421;DHT22;8828;48.800;9.540;2023-03-01T02:01:39;2.20;94.70
17421;DHT22;8828;48.800;9.540;2023-03-01T02:04:07;2.20;94.80
17421;DHT22;8828;48.800;9.540;2023-03-01T02:06:39;2.20;94.90
17421;DHT22;8828;48.800;9.540;2023-03-01T02:09:14;2.30;95.00
17421;DHT22;8828;48.800;9.540;2023-03-01T02:11:44;2.30;95.00
17421;DHT22;8828;48.800;9.540;2023-03-01T02:14:12;2.30;95.10
17421;DHT22;8828;48.800;9.540;2023-03-01T02:16:40;2.30;95.20
17421;DHT22;8828;48.800;9.540;2023-03-01T02:19:15;2.40;95.20
17421;DHT22;8828;48.800;9.540;2023-03-01T02:21:52;2.40;95.30
17421;DHT22;8828;48.800;9.540;2023-03-01T02:24:28;2.50;95.40
17421;DHT22;8828;48.800;9.540;2023-03-01T02:27:00;2.50;95.60
17421;DHT22;8828;48.800;9.540;2023-03-01T02:29:30;2.50;95.60
17421;DHT22;8828;48.800;9.540;2023-03-01T02:32:00;2.50;95.70
17421;DHT22;8828;48.800;9.540;2023-03-01T02:34:31;2.50;95.90
17421;DHT22;8828;48.800;9.540;2023-03-01T02:37:02;2.50;95.70
17421;DHT22;8828;48.800;9.540;2023-03-01T02:39:34;2.60;95.80
17421;DHT22;8828;48.800;9.540;2023-03-01T02:42:04;2.60;96.00
17421;DHT22;8828;48.800;9.540;2023-03-01T02:44:34;2.60;95.90
17421;DHT22;8828;48.800;9.540;2023-03-01T02:47:03;2.60;95.90
17421;DHT22;8828;48.800;9.540;2023-03-01T02:49:34;2.70;96.20
17421;DHT22;8828;48.800;9.540;2023-03-01T02:52:27;2.70;96.20
17421;DHT22;8828;48.800;9.540;2023-03-01T02:54:58;2.70;96.10
17421;DHT22;8828;48.800;9.540;2023-03-01T02:57:29;2.70;96.20
17421;DHT22;8828;48.800;9.540;2023-03-01T03:00:03;2.70;96.20
17421;DHT22;8828;48.800;9.540;2023-03-01T03:02:34;2.70;96.30
17421;DHT22;8828;48.800;9.540;2023-03-01T03:05:08;2.70;96.30
17421;DHT22;8828;48.800;9.540;2023-03-01T03:07:38;2.70;96.20
17421;DHT22;8828;48.800;9.540;2023-03-01T03:10:09;2.70;96.10
17421;DHT22;8828;48.800;9.540;2023-03-01T03:12:39;2.70;95.90
17421;DHT22;8828;48.800;9.540;2023-03-01T03:15:10;2.70;95.90
17421;DHT22;8828;48.800;9.540;2023-03-01T03:17:41;2.70;96.00
17421;DHT22;8828;48.800;9.540;2023-03-01T03:20:13;2.80;96.10
17421;DHT22;8828;48.800;9.540;2023-03-01T03:22:46;2.80;96.20
17421;DHT22;8828;48.800;9.540;2023-03-01T03:25:14;2.80;96.20
17421;DHT22;8828;48.800;9.540;2023-03-01T03:27:43;2.80;96.20
17421;DHT22;8828;48.800;9.540;2023-03-01T03:30:15;2.80;96.10
17421;DHT22;8828;48.800;9.540;2023-03-01T03:32:45;2.80;96.10
17421;DHT22;8828;48.800;9.540;2023-03-01T03:35:19;2.80;96.10
17421;DHT22;8828;48.800;9.540;2023-03-01T03:37:48;2.80;96.10
17421;DHT22;8828;48.800;9.540;2023-03-01T03:40:31;2.90;96.30
17421;DHT22;8828;48.800;9.540;2023-03-01T03:43:00;2.80;96.30
17421;DHT22;8828;48.800;9.540;2023-03-01T03:45:29;2.80;96.40
17421;DHT22;8828;48.800;9.540;2023-03-01T03:48:00;2.80;96.50
17421;DHT22;8828;48.800;9.540;2023-03-01T03:50:28;2.90;96.70
17421;DHT22;8828;48.800;9.540;2023-03-01T03:52:56;2.90;96.70
17421;DHT22;8828;48.800;9.540;2023-03-01T03:55:24;2.90;96.60
17421;DHT22;8828;48.800;9.540;2023-03-01T03:57:58;2.90;96.50
17421;DHT22;8828;48.800;9.540;2023-03-01T04:00:30;2.90;96.60
17421;DHT22;8828;48.800;9.540;2023-03-01T04:02:58;2.90;96.70
17421;DHT22;8828;48.800;9.540;2023-03-01T04:05:26;2.90;96.90
17421;DHT22;8828;48.800;9.540;2023-03-01T04:07:55;2.90;97.00
17421;DHT22;8828;48.800;9.540;2023-03-01T04:10:29;2.90;97.10
17421;DHT22;8828;48.800;9.540;2023-03-01T04:12:57;2.90;97.00
17421;DHT22;8828;48.800;9.540;2023-03-01T04:15:26;2.90;97.10
17421;DHT22;8828;48.800;9.540;2023-03-01T04:17:56;2.90;97.20
17421;DHT22;8828;48.800;9.540;2023-03-01T04:20:27;2.90;97.30
17421;DHT22;8828;48.800;9.540;2023-03-01T04:23:00;2.90;97.40
17421;DHT22;8828;48.800;9.540;2023-03-01T04:25:38;2.90;97.50
17421;DHT22;8828;48.800;9.540;2023-03-01T04:28:07;2.90;97.50
17421;DHT22;8828;48.800;9.540;2023-03-01T04:30:35;2.90;97.70
17421;DHT22;8828;48.800;9.540;2023-03-01T04:33:06;2.90;97.80
17421;DHT22;8828;48.800;9.540;2023-03-01T04:35:35;2.90;97.80
17421;DHT22;8828;48.800;9.540;2023-03-01T04:38:03;3.00;97.90
17421;DHT22;8828;48.800;9.540;2023-03-01T04:40:32;3.00;97.90
17421;DHT22;8828;48.800;9.540;2023-03-01T04:43:00;3.00;98.00
17421;DHT22;8828;48.800;9.540;2023-03-01T04:45:28;3.00;98.00
17421;DHT22;8828;48.800;9.540;2023-03-01T04:47:55;3.00;98.10
17421;DHT22;8828;48.800;9.540;2023-03-01T04:50:26;3.00;98.20
17421;DHT22;8828;48.800;9.540;2023-03-01T04:52:55;3.00;98.40
17421;DHT22;8828;48.800;9.540;2023-03-01T04:55:25;3.00;98.90
17421;DHT22;8828;48.800;9.540;2023-03-01T04:57:54;3.00;98.70
17421;DHT22;8828;48.800;9.540;2023-03-01T05:00:23;3.00;98.80
17421;DHT22;8828;48.800;9.540;2023-03-01T05:02:52;3.00;99.00
17421;DHT22;8828;48.800;9.540;2023-03-01T05:05:22;3.00;99.00
17421;DHT22;8828;48.800;9.540;2023-03-01T05:07:55;3.00;98.90
17421;DHT22;8828;48.800;9.540;2023-03-01T05:10:24;3.00;98.90
17421;DHT22;8828;48.800;9.540;2023-03-01T05:12:52;3.00;98.90
17421;DHT22;8828;48.800;9.540;2023-03-01T05:15:20;3.00;99.00
17421;DHT22;8828;48.800;9.540;2023-03-01T05:17:52;2.90;99.00
17421;DHT22;8828;48.800;9.540;2023-03-01T05:20:21;3.00;98.90
17421;DHT22;8828;48.800;9.540;2023-03-01T05:22:51;3.00;98.80
17421;DHT22;8828;48.800;9.540;2023-03-01T05:25:20;3.00;98.90
17421;DHT22;8828;48.800;9.540;2023-03-01T05:27:48;3.00;98.70
17421;DHT22;8828;48.800;9.540;2023-03-01T05:30:17;3.00;98.70
17421;DHT22;8828;48.800;9.540;2023-03-01T05:32:47;3.00;98.80
17421;DHT22;8828;48.800;9.540;2023-03-01T05:35:16;3.00;98.90
17421;DHT22;8828;48.800;9.540;2023-03-01T05:37:47;3.00;98.70
17421;DHT22;8828;48.800;9.540;2023-03-01T05:40:17;3.00;98.70
17421;DHT22;8828;48.800;9.540;2023-03-01T05:42:48;3.10;98.90
17421;DHT22;8828;48.800;9.540;2023-03-01T05:45:17;3.10;98.80
17421;DHT22;8828;48.800;9.540;2023-03-01T05:47:46;3.10;98.80
17421;DHT22;8828;48.800;9.540;2023-03-01T05:50:16;3.10;98.80
17421;DHT22;8828;48.800;9.540;2023-03-01T05:52:46;3.00;98.80
17421;DHT22;8828;48.800;9.540;2023-03-01T05:55:16;3.00;98.80
17421;DHT22;8828;48.800;9.540;2023-03-01T05:57:44;3.00;98.90
17421;DHT22;8828;48.800;9.540;2023-03-01T06:00:16;3.00;98.90
17421;DHT22;8828;48.800;9.540;2023-03-01T06:02:44;3.00;98.90
17421;DHT22;8828;48.800;9.540;2023-03-01T06:05:14;3.00;99.10
17421;DHT22;8828;48.800;9.540;2023-03-01T06:07:42;3.00;99.10
17421;DHT22;8828;48.800;9.540;2023-03-01T06:10:11;3.00;99.10
17421;DHT22;8828;48.800;9.540;2023-03-01T06:12:40;3.00;99.20
17421;DHT22;8828;48.800;9.540;2023-03-01T06:15:10;3.00;99.40
17421;DHT22;8828;48.800;9.540;2023-03-01T06:17:41;2.90;99.50
17421;DHT22;8828;48.800;9.540;2023-03-01T06:20:12;2.80;99.60
17421;DHT22;8828;48.800;9.540;2023-03-01T06:22:41;2.80;99.70
17421;DHT22;8828;48.800;9.540;2023-03-01T06:25:10;2.80;99.90
17421;DHT22;8828;48.800;9.540;2023-03-01T06:27:39;2.70;99.90
17421;DHT22;8828;48.800;9.540;2023-03-01T06:30:08;2.70;99.90
17421;DHT22;8828;48.800;9.540;2023-03-01T06:32:37;2.60;99.90
17421;DHT22;8828;48.800;9.540;2023-03-01T06:35:11;2.60;99.90
17421;DHT22;8828;48.800;9.540;2023-03-01T06:37:39;2.50;99.90
17421;DHT22;8828;48.800;9.540;2023-03-01T06:40:09;2.50;99.90
17421;DHT22;8828;48.800;9.540;2023-03-01T06:42:41;2.50;99.90
17421;DHT22;8828;48.800;9.540;2023-03-01T06:45:10;2.40;99.90
17421;DHT22;8828;48.800;9.540;2023-03-01T06:47:38;2.40;99.90
17421;DHT22;8828;48.800;9.540;2023-03-01T06:50:07;2.40;99.90
17421;DHT22;8828;48.800;9.540;2023-03-01T06:52:37;2.40;99.90
17421;DHT22;8828;48.800;9.540;2023-03-01T06:55:06;2.40;99.90
17421;DHT22;8828;48.800;9.540;2023-03-01T06:57:34;2.40;99.90
17421;DHT22;8828;48.800;9.540;2023-03-01T07:00:03;2.40;99.90
17421;DHT22;8828;48.800;9.540;2023-03-01T07:02:31;2.40;99.90
17421;DHT22;8828;48.800;9.540;2023-03-01T07:04:59;2.40;99.90
17421;DHT22;8828;48.800;9.540;2023-03-01T07:07:27;2.40;99.90
17421;DHT22;8828;48.800;9.540;2023-03-01T07:09:56;2.40;99.90
17421;DHT22;8828;48.800;9.540;2023-03-01T07:12:24;2.50;99.90
17421;DHT22;8828;48.800;9.540;2023-03-01T07:14:52;2.50;99.90
17421;DHT22;8828;48.800;9.540;2023-03-01T07:17:20;2.60;99.90
17421;DHT22;8828;48.800;9.540;2023-03-01T07:19:48;2.70;99.90
17421;DHT22;8828;48.800;9.540;2023-03-01T07:22:16;2.80;99.90
17421;DHT22;8828;48.800;9.540;2023-03-01T07:24:44;2.80;99.90
17421;DHT22;8828;48.800;9.540;2023-03-01T07:27:13;2.90;99.90
17421;DHT22;8828;48.800;9.540;2023-03-01T07:29:41;3.00;99.90
17421;DHT22;8828;48.800;9.540;2023-03-01T07:32:10;3.10;99.80
17421;DHT22;8828;48.800;9.540;2023-03-01T07:34:38;3.10;99.60
17421;DHT22;8828;48.800;9.540;2023-03-01T07:37:06;3.20;99.50
17421;DHT22;8828;48.800;9.540;2023-03-01T07:39:34;3.30;99.50
17421;DHT22;8828;48.800;9.540;2023-03-01T07:42:02;3.40;99.50
17421;DHT22;8828;48.800;9.540;2023-03-01T07:44:31;3.50;99.10
17421;DHT22;8828;48.800;9.540;2023-03-01T07:46:59;3.60;99.00
17421;DHT22;8828;48.800;9.540;2023-03-01T07:49:27;3.70;98.80
17421;DHT22;8828;48.800;9.540;2023-03-01T07:51:55;3.90;98.50
17421;DHT22;8828;48.800;9.540;2023-03-01T07:54:23;4.10;98.40
17421;DHT22;8828;48.800;9.540;2023-03-01T07:56:52;4.30;98.10
17421;DHT22;8828;48.800;9.540;2023-03-01T07:59:21;4.60;97.30
17421;DHT22;8828;48.800;9.540;2023-03-01T08:01:51;4.80;96.90
17421;DHT22;8828;48.800;9.540;2023-03-01T08:04:19;5.00;96.40
17421;DHT22;8828;48.800;9.540;2023-03-01T08:06:47;5.30;95.80
17421;DHT22;8828;48.800;9.540;2023-03-01T08:09:15;5.50;95.10
17421;DHT22;8828;48.800;9.540;2023-03-01T08:11:43;5.70;94.50
17421;DHT22;8828;48.800;9.540;2023-03-01T08:14:11;5.80;94.40
17421;DHT22;8828;48.800;9.540;2023-03-01T08:16:39;6.10;94.30
17421;DHT22;8828;48.800;9.540;2023-03-01T08:19:10;6.20;93.30
17421;DHT22;8828;48.800;9.540;2023-03-01T08:21:38;6.40;92.90
17421;DHT22;8828;48.800;9.540;2023-03-01T08:24:07;6.60;92.40
17421;DHT22;8828;48.800;9.540;2023-03-01T08:26:37;6.70;92.10
17421;DHT22;8828;48.800;9.540;2023-03-01T08:29:05;6.80;91.60
17421;DHT22;8828;48.800;9.540;2023-03-01T08:31:34;7.00;91.30
17421;DHT22;8828;48.800;9.540;2023-03-01T08:34:05;7.20;91.00
17421;DHT22;8828;48.800;9.540;2023-03-01T08:36:37;7.30;90.70
17421;DHT22;8828;48.800;9.540;2023-03-01T08:39:10;7.50;90.90
17421;DHT22;8828;48.800;9.540;2023-03-01T08:41:39;7.70;90.10
17421;DHT22;8828;48.800;9.540;2023-03-01T08:44:07;7.80;89.50
17421;DHT22;8828;48.800;9.540;2023-03-01T08:46:38;8.00;88.20
17421;DHT22;8828;48.800;9.540;2023-03-01T08:49:07;8.20;87.30
17421;DHT22;8828;48.800;9.540;2023-03-01T08:51:37;8.40;86.90
17421;DHT22;8828;48.800;9.540;2023-03-01T08:54:06;8.60;86.10
17421;DHT22;8828;48.800;9.540;2023-03-01T08:56:34;8.80;85.20
17421;DHT22;8828;48.800;9.540;2023-03-01T08:59:02;9.00;83.80
17421;DHT22;8828;48.800;9.540;2023-03-01T09:01:30;9.30;83.10
17421;DHT22;8828;48.800;9.540;2023-03-01T09:03:58;9.50;82.40
17421;DHT22;8828;48.800;9.540;2023-03-01T09:06:26;9.70;81.50
17421;DHT22;8828;48.800;9.540;2023-03-01T09:08:56;10.10;80.40
17421;DHT22;8828;48.800;9.540;2023-03-01T09:11:24;10.30;78.50
17421;DHT22;8828;48.800;9.540;2023-03-01T09:13:52;10.50;78.00
17421;DHT22;8828;48.800;9.540;2023-03-01T09:16:21;10.70;76.20
17421;DHT22;8828;48.800;9.540;2023-03-01T09:18:50;11.00;75.60
17421;DHT22;8828;48.800;9.540;2023-03-01T09:21:20;11.30;74.20
17421;DHT22;8828;48.800;9.540;2023-03-01T09:24:06;11.70;72.10
17421;DHT22;8828;48.800;9.540;2023-03-01T09:26:34;12.00;71.40
17421;DHT22;8828;48.800;9.540;2023-03-01T09:29:02;12.40;70.60
17421;DHT22;8828;48.800;9.540;2023-03-01T09:31:30;12.80;68.70
17421;DHT22;8828;48.800;9.540;2023-03-01T09:33:58;13.00;66.20
17421;DHT22;8828;48.800;9.540;2023-03-01T09:36:26;13.40;65.20
17421;DHT22;8828;48.800;9.540;2023-03-01T09:38:56;13.80;63.90
17421;DHT22;8828;48.800;9.540;2023-03-01T09:41:45;14.30;62.20
17421;DHT22;8828;48.800;9.540;2023-03-01T09:44:23;14.80;60.00
17421;DHT22;8828;48.800;9.540;2023-03-01T09:46:52;15.40;59.20
17421;DHT22;8828;48.800;9.540;2023-03-01T09:49:23;16.10;57.70
17421;DHT22;8828;48.800;9.540;2023-03-01T09:52:03;16.60;56.30
17421;DHT22;8828;48.800;9.540;2023-03-01T09:54:34;17.30;54.50
17421;DHT22;8828;48.800;9.540;2023-03-01T09:57:14;18.00;53.00
17421;DHT22;8828;48.800;9.540;2023-03-01T10:02:42;19.30;50.10
17421;DHT22;8828;48.800;9.540;2023-03-01T10:05:27;20.50;48.40
17421;DHT22;8828;48.800;9.540;2023-03-01T10:08:06;21.50;46.20
17421;DHT22;8828;48.800;9.540;2023-03-01T10:10:44;22.50;45.50
17421;DHT22;8828;48.800;9.540;2023-03-01T10:13:17;23.40;42.50
17421;DHT22;8828;48.800;9.540;2023-03-01T10:15:50;24.40;40.50
17421;DHT22;8828;48.800;9.540;2023-03-01T10:18:23;25.40;39.20
17421;DHT22;8828;48.800;9.540;2023-03-01T10:20:54;26.30;37.60
17421;DHT22;8828;48.800;9.540;2023-03-01T10:23:24;27.20;36.20
17421;DHT22;8828;48.800;9.540;2023-03-01T10:26:11;28.00;36.00
17421;DHT22;8828;48.800;9.540;2023-03-01T10:28:51;28.80;34.00
17421;DHT22;8828;48.800;9.540;2023-03-01T10:31:24;29.20;33.40
17421;DHT22;8828;48.800;9.540;2023-03-01T10:33:56;29.90;32.90
17421;DHT22;8828;48.800;9.540;2023-03-01T10:36:25;30.40;31.90
17421;DHT22;8828;48.800;9.540;2023-03-01T10:38:55;30.80;31.90
17421;DHT22;8828;48.800;9.540;2023-03-01T10:41:26;31.20;30.80
17421;DHT22;8828;48.800;9.540;2023-03-01T10:43:57;31.10;30.30
17421;DHT22;8828;48.800;9.540;2023-03-01T10:46:28;30.70;30.50
17421;DHT22;8828;48.800;9.540;2023-03-01T10:49:18;31.00;30.20
17421;DHT22;8828;48.800;9.540;2023-03-01T10:51:48;31.40;29.90
17421;DHT22;8828;48.800;9.540;2023-03-01T10:54:19;31.70;29.40
17421;DHT22;8828;48.800;9.540;2023-03-01T10:56:48;31.60;29.30
17421;DHT22;8828;48.800;9.540;2023-03-01T10:59:26;31.80;29.30
17421;DHT22;8828;48.800;9.540;2023-03-01T11:02:03;31.80;29.20
17421;DHT22;8828;48.800;9.540;2023-03-01T11:05:00;32.00;28.80
17421;DHT22;8828;48.800;9.540;2023-03-01T11:07:29;32.10;28.80
17421;DHT22;8828;48.800;9.540;2023-03-01T11:09:57;32.50;28.60
17421;DHT22;8828;48.800;9.540;2023-03-01T11:12:25;32.80;28.50
17421;DHT22;8828;48.800;9.540;2023-03-01T11:14:57;33.00;28.10
17421;DHT22;8828;48.800;9.540;2023-03-01T11:17:28;32.90;28.10
17421;DHT22;8828;48.800;9.540;2023-03-01T11:20:15;32.80;28.30
17421;DHT22;8828;48.800;9.540;2023-03-01T11:22:50;33.00;28.30
17421;DHT22;8828;48.800;9.540;2023-03-01T11:25:24;33.10;28.40
17421;DHT22;8828;48.800;9.540;2023-03-01T11:27:53;33.40;27.90
17421;DHT22;8828;48.800;9.540;2023-03-01T11:30:27;33.30;27.90
17421;DHT22;8828;48.800;9.540;2023-03-01T11:33:11;33.70;27.80
17421;DHT22;8828;48.800;9.540;2023-03-01T11:35:44;33.60;27.60
17421;DHT22;8828;48.800;9.540;2023-03-01T11:38:20;33.70;27.40
17421;DHT22;8828;48.800;9.540;2023-03-01T11:40:53;33.60;27.50
17421;DHT22;8828;48.800;9.540;2023-03-01T11:43:33;33.60;27.50
17421;DHT22;8828;48.800;9.540;2023-03-01T11:46:29;33.50;27.80
17421;DHT22;8828;48.800;9.540;2023-03-01T11:49:10;33.80;27.60
17421;DHT22;8828;48.800;9.540;2023-03-01T11:51:49;33.70;27.60
17421;DHT22;8828;48.800;9.540;2023-03-01T11:54:30;33.50;27.60
17421;DHT22;8828;48.800;9.540;2023-03-01T11:57:08;33.40;27.60
17421;DHT22;8828;48.800;9.540;2023-03-01T12:00:03;33.60;27.60
17421;DHT22;8828;48.800;9.540;2023-03-01T12:06:09;33.70;27.60
17421;DHT22;8828;48.800;9.540;2023-03-01T12:08:42;33.90;27.40
17421;DHT22;8828;48.800;9.540;2023-03-01T12:11:23;34.20;27.50
17421;DHT22;8828;48.800;9.540;2023-03-01T12:17:15;34.20;27.30
17421;DHT22;8828;48.800;9.540;2023-03-01T12:20:02;34.40;27.10
17421;DHT22;8828;48.800;9.540;2023-03-01T12:22:48;34.60;27.20
17421;DHT22;8828;48.800;9.540;2023-03-01T12:25:36;34.30;27.20
17421;DHT22;8828;48.800;9.540;2023-03-01T12:28:38;34.40;27.10
17421;DHT22;8828;48.800;9.540;2023-03-01T12:31:52;34.00;27.20
17421;DHT22;8828;48.800;9.540;2023-03-01T12:37:31;33.80;27.20
17421;DHT22;8828;48.800;9.540;2023-03-01T12:43:07;34.00;27.20
17421;DHT22;8828;48.800;9.540;2023-03-01T12:45:50;33.10;27.20
17421;DHT22;8828;48.800;9.540;2023-03-01T12:48:34;32.90;27.50
17421;DHT22;8828;48.800;9.540;2023-03-01T12:51:07;32.90;27.60
17421;DHT22;8828;48.800;9.540;2023-03-01T12:53:40;32.70;27.50
17421;DHT22;8828;48.800;9.540;2023-03-01T12:56:13;32.80;27.70
17421;DHT22;8828;48.800;9.540;2023-03-01T12:58:49;32.50;27.40
17421;DHT22;8828;48.800;9.540;2023-03-01T13:01:36;32.40;27.60
17421;DHT22;8828;48.800;9.540;2023-03-01T13:04:15;32.10;27.60
17421;DHT22;8828;48.800;9.540;2023-03-01T13:06:52;31.60;27.80
17421;DHT22;8828;48.800;9.540;2023-03-01T13:09:27;31.70;28.10
17421;DHT22;8828;48.800;9.540;2023-03-01T13:11:59;31.50;28.20
17421;DHT22;8828;48.800;9.540;2023-03-01T13:14:37;31.40;28.10
17421;DHT22;8828;48.800;9.540;2023-03-01T13:17:32;31.20;28.00
17421;DHT22;8828;48.800;9.540;2023-03-01T13:20:01;30.90;28.60
17421;DHT22;8828;48.800;9.540;2023-03-01T13:22:32;30.60;28.40
17421;DHT22;8828;48.800;9.540;2023-03-01T13:25:15;30.20;28.50
17421;DHT22;8828;48.800;9.540;2023-03-01T13:27:45;29.70;28.90
17421;DHT22;8828;48.800;9.540;2023-03-01T13:30:39;29.50;29.00
17421;DHT22;8828;48.800;9.540;2023-03-01T13:33:41;29.00;29.20
17421;DHT22;8828;48.800;9.540;2023-03-01T13:36:47;28.70;29.50
17421;DHT22;8828;48.800;9.540;2023-03-01T13:39:30;28.30;29.70
17421;DHT22;8828;48.800;9.540;2023-03-01T13:41:59;27.80;30.10
17421;DHT22;8828;48.800;9.540;2023-03-01T13:44:33;27.40;30.50
17421;DHT22;8828;48.800;9.540;2023-03-01T13:47:07;27.10;30.70
17421;DHT22;8828;48.800;9.540;2023-03-01T13:49:46;26.60;30.50
17421;DHT22;8828;48.800;9.540;2023-03-01T13:52:32;26.20;31.00
17421;DHT22;8828;48.800;9.540;2023-03-01T13:55:04;26.10;31.50
17421;DHT22;8828;48.800;9.540;2023-03-01T13:57:35;25.70;31.50
17421;DHT22;8828;48.800;9.540;2023-03-01T14:00:28;25.40;31.70
17421;DHT22;8828;48.800;9.540;2023-03-01T14:03:14;24.90;32.20
17421;DHT22;8828;48.800;9.540;2023-03-01T14:05:57;24.50;32.60
17421;DHT22;8828;48.800;9.540;2023-03-01T14:08:39;23.90;33.30
17421;DHT22;8828;48.800;9.540;2023-03-01T14:11:37;23.40;33.70
17421;DHT22;8828;48.800;9.540;2023-03-01T14:14:30;23.20;34.00
17421;DHT22;8828;48.800;9.540;2023-03-01T14:17:12;22.70;34.60
17421;DHT22;8828;48.800;9.540;2023-03-01T14:19:44;22.50;34.80
17421;DHT22;8828;48.800;9.540;2023-03-01T14:22:19;22.10;35.00
17421;DHT22;8828;48.800;9.540;2023-03-01T14:24:50;21.90;35.60
17421;DHT22;8828;48.800;9.540;2023-03-01T14:27:19;21.50;35.80
17421;DHT22;8828;48.800;9.540;2023-03-01T14:29:55;21.40;36.20
17421;DHT22;8828;48.800;9.540;2023-03-01T14:32:27;21.20;36.40
17421;DHT22;8828;48.800;9.540;2023-03-01T14:34:56;20.80;36.60
17421;DHT22;8828;48.800;9.540;2023-03-01T14:37:25;20.50;37.10
17421;DHT22;8828;48.800;9.540;2023-03-01T14:39:55;20.10;37.70
17421;DHT22;8828;48.800;9.540;2023-03-01T14:42:26;19.60;38.40
17421;DHT22;8828;48.800;9.540;2023-03-01T14:44:57;19.10;38.90
17421;DHT22;8828;48.800;9.540;2023-03-01T14:47:29;18.60;39.60
17421;DHT22;8828;48.800;9.540;2023-03-01T14:50:00;18.00;40.30
17421;DHT22;8828;48.800;9.540;2023-03-01T14:52:34;17.60;41.60
17421;DHT22;8828;48.800;9.540;2023-03-01T14:55:05;17.20;41.50
17421;DHT22;8828;48.800;9.540;2023-03-01T14:57:33;16.90;42.10
17421;DHT22;8828;48.800;9.540;2023-03-01T15:00:03;16.60;42.40
17421;DHT22;8828;48.800;9.540;2023-03-01T15:02:35;16.30;42.80
17421;DHT22;8828;48.800;9.540;2023-03-01T15:05:06;15.90;43.20
17421;DHT22;8828;48.800;9.540;2023-03-01T15:07:38;15.70;43.80
17421;DHT22;8828;48.800;9.540;2023-03-01T15:10:16;15.40;44.20
17421;DHT22;8828;48.800;9.540;2023-03-01T15:12:48;15.20;44.70
17421;DHT22;8828;48.800;9.540;2023-03-01T15:15:33;15.00;45.00
17421;DHT22;8828;48.800;9.540;2023-03-01T15:18:05;14.70;45.40
17421;DHT22;8828;48.800;9.540;2023-03-01T15:20:40;14.50;45.90
17421;DHT22;8828;48.800;9.540;2023-03-01T15:23:21;14.30;46.30
17421;DHT22;8828;48.800;9.540;2023-03-01T15:25:50;14.20;46.50
17421;DHT22;8828;48.800;9.540;2023-03-01T15:28:25;14.00;46.70
17421;DHT22;8828;48.800;9.540;2023-03-01T15:30:56;13.90;47.70
17421;DHT22;8828;48.800;9.540;2023-03-01T15:33:44;13.70;47.30
17421;DHT22;8828;48.800;9.540;2023-03-01T15:36:32;13.60;48.00
17421;DHT22;8828;48.800;9.540;2023-03-01T15:39:00;13.60;48.00
17421;DHT22;8828;48.800;9.540;2023-03-01T15:41:30;13.50;48.20
17421;DHT22;8828;48.800;9.540;2023-03-01T15:43:59;13.40;48.20
17421;DHT22;8828;48.800;9.540;2023-03-01T15:46:30;13.40;48.30
17421;DHT22;8828;48.800;9.540;2023-03-01T15:49:03;13.30;48.10
17421;DHT22;8828;48.800;9.540;2023-03-01T15:51:33;13.20;48.40
17421;DHT22;8828;48.800;9.540;2023-03-01T15:54:05;13.10;48.80
17421;DHT22;8828;48.800;9.540;2023-03-01T15:56:34;12.90;49.00
17421;DHT22;8828;48.800;9.540;2023-03-01T15:59:02;12.80;49.40
17421;DHT22;8828;48.800;9.540;2023-03-01T16:01:31;12.70;49.70
17421;DHT22;8828;48.800;9.540;2023-03-01T16:04:02;12.60;49.50
17421;DHT22;8828;48.800;9.540;2023-03-01T16:06:30;12.50;50.40
17421;DHT22;8828;48.800;9.540;2023-03-01T16:08:58;12.40;50.20
17421;DHT22;8828;48.800;9.540;2023-03-01T16:11:26;12.30;50.10
17421;DHT22;8828;48.800;9.540;2023-03-01T16:13:54;12.20;50.50
17421;DHT22;8828;48.800;9.540;2023-03-01T16:16:23;12.10;50.60
17421;DHT22;8828;48.800;9.540;2023-03-01T16:18:51;12.10;50.90
17421;DHT22;8828;48.800;9.540;2023-03-01T16:21:24;11.90;50.90
17421;DHT22;8828;48.800;9.540;2023-03-01T16:23:52;11.90;50.90
17421;DHT22;8828;48.800;9.540;2023-03-01T16:26:20;11.80;51.10
17421;DHT22;8828;48.800;9.540;2023-03-01T16:28:48;11.70;51.10
17421;DHT22;8828;48.800;9.540;2023-03-01T16:31:18;11.50;51.90
17421;DHT22;8828;48.800;9.540;2023-03-01T16:33:47;11.40;51.60
17421;DHT22;8828;48.800;9.540;2023-03-01T16:36:18;11.40;52.30
17421;DHT22;8828;48.800;9.540;2023-03-01T16:38:47;11.30;52.00
17421;DHT22;8828;48.800;9.540;2023-03-01T16:41:18;11.20;52.20
17421;DHT22;8828;48.800;9.540;2023-03-01T16:43:47;11.10;52.30